Time;durP1;ratioP1;P1;durP2;ratioP2;P2;SDS_P1;SDS_P2;PMS_P1;PMS_P2;Temp;Humidity;BMP_temperature;BMP_pressure;BME280_temperature;BME280_humidity;BME280_pressure;Samples;Min_cycle;Max_cycle;Signal;HPM_P1;HPM_P2
2021/05/18 00:00:21;;;;;;;;;;;11.00;99.90;;;;;;5052601;28;19925;-72
2021/05/18 00:02:49;;;;;;;;;;;11.00;99.90;;;;;;5053074;28;19925;-70
2021/05/18 00:05:18;;;;;;;;;;;10.90;99.90;;;;;;5068402;28;19933;-71
2021/05/18 00:07:53;;;;;;;;;;;11.00;99.90;;;;;;5053416;28;20031;-73
2021/05/18 00:13:17;;;;;;;;;;;11.00;99.90;;;;;;5053264;28;20003;-71
2021/05/18 00:15:45;;;;;;;;;;;11.00;99.90;;;;;;5052162;28;19964;-72
2021/05/18 00:18:13;;;;;;;;;;;11.00;99.90;;;;;;5068964;28;20039;-71
2021/05/18 00:20:41;;;;;;;;;;;11.00;99.90;;;;;;5053140;28;19925;-71
2021/05/18 00:23:10;;;;;;;;;;;11.00;99.90;;;;;;5053148;28;19932;-70
2021/05/18 00:25:38;;;;;;;;;;;11.00;99.90;;;;;;5053314;28;19925;-70
2021/05/18 00:28:06;;;;;;;;;;;11.00;99.90;;;;;;5053287;28;19986;-72
2021/05/18 00:30:35;;;;;;;;;;;11.00;99.90;;;;;;5034253;28;19990;-70
2021/05/18 00:33:11;;;;;;;;;;;11.00;99.90;;;;;;5055126;28;20020;-71
2021/05/18 00:35:39;;;;;;;;;;;11.00;99.90;;;;;;5055863;28;20043;-72
2021/05/18 00:38:07;;;;;;;;;;;11.00;99.90;;;;;;5056570;28;19956;-72
2021/05/18 00:40:36;;;;;;;;;;;11.00;99.90;;;;;;5056458;28;19924;-72
2021/05/18 00:43:03;;;;;;;;;;;11.00;99.90;;;;;;5055492;28;19948;-71
2021/05/18 00:45:32;;;;;;;;;;;11.00;99.90;;;;;;5037651;28;19979;-71
2021/05/18 00:48:02;;;;;;;;;;;11.10;99.90;;;;;;5056324;28;19948;-70
2021/05/18 00:50:30;;;;;;;;;;;11.00;99.90;;;;;;5056659;28;19932;-71
2021/05/18 00:53:00;;;;;;;;;;;11.00;99.90;;;;;;5054891;28;19967;-71
2021/05/18 00:55:40;;;;;;;;;;;10.90;99.90;;;;;;5055513;28;19924;-73
2021/05/18 00:58:26;;;;;;;;;;;11.00;99.90;;;;;;5056718;28;19928;-71
2021/05/18 01:00:54;;;;;;;;;;;11.00;99.90;;;;;;5055320;28;19929;-72
2021/05/18 01:03:23;;;;;;;;;;;11.00;99.90;;;;;;5056349;28;20338;-71
2021/05/18 01:08:38;;;;;;;;;;;11.00;99.90;;;;;;5055827;28;19924;-71
2021/05/18 01:11:05;;;;;;;;;;;11.00;99.90;;;;;;5054157;28;19924;-70
2021/05/18 01:13:34;;;;;;;;;;;11.00;99.90;;;;;;5054868;28;20009;-71
2021/05/18 01:16:03;;;;;;;;;;;11.00;99.90;;;;;;5037313;28;19960;-73
2021/05/18 01:18:35;;;;;;;;;;;11.00;99.90;;;;;;5055938;28;19931;-71
2021/05/18 01:21:04;;;;;;;;;;;11.00;99.90;;;;;;5054517;28;20011;-72
2021/05/18 01:23:33;;;;;;;;;;;11.00;99.90;;;;;;5054299;28;19924;-71
2021/05/18 01:26:01;;;;;;;;;;;11.00;99.90;;;;;;5055835;28;19925;-72
2021/05/18 01:28:29;;;;;;;;;;;11.00;99.90;;;;;;5056008;28;19925;-73
2021/05/18 01:30:58;;;;;;;;;;;11.00;99.90;;;;;;5053829;28;19990;-72
2021/05/18 01:33:27;;;;;;;;;;;11.00;99.90;;;;;;5054498;28;19982;-71
2021/05/18 01:35:56;;;;;;;;;;;11.00;99.90;;;;;;5054353;28;20369;-73
2021/05/18 01:38:31;;;;;;;;;;;11.00;99.90;;;;;;5037988;28;19971;-71
2021/05/18 01:43:52;;;;;;;;;;;11.10;99.90;;;;;;5063567;28;20024;-70
2021/05/18 01:46:21;;;;;;;;;;;11.00;99.90;;;;;;5060944;28;19975;-71
2021/05/18 01:48:57;;;;;;;;;;;11.00;99.90;;;;;;5055178;28;20296;-71
2021/05/18 01:51:26;;;;;;;;;;;11.00;99.90;;;;;;5054661;28;19925;-71
2021/05/18 01:53:57;;;;;;;;;;;11.00;99.90;;;;;;5054773;28;19971;-72
2021/05/18 01:59:17;;;;;;;;;;;11.00;99.90;;;;;;5053577;28;19932;-71
2021/05/18 02:01:47;;;;;;;;;;;11.00;99.90;;;;;;5052950;28;20376;-74
2021/05/18 02:04:23;;;;;;;;;;;11.00;99.90;;;;;;5054858;28;19926;-71
2021/05/18 02:06:52;;;;;;;;;;;11.00;99.90;;;;;;5053568;28;19924;-71
2021/05/18 02:09:22;;;;;;;;;;;11.00;99.90;;;;;;5055504;28;20368;-71
2021/05/18 02:11:54;;;;;;;;;;;11.00;99.90;;;;;;5051606;28;19975;-71
2021/05/18 02:14:26;;;;;;;;;;;11.00;99.90;;;;;;5053671;28;19925;-71
2021/05/18 02:17:04;;;;;;;;;;;11.00;99.90;;;;;;5053818;28;19925;-71
2021/05/18 02:19:51;;;;;;;;;;;11.00;99.90;;;;;;5053650;28;19929;-70
2021/05/18 02:25:19;;;;;;;;;;;11.00;99.90;;;;;;5054733;28;19968;-73
2021/05/18 02:28:03;;;;;;;;;;;10.90;99.90;;;;;;5053250;28;20012;-74
2021/05/18 02:30:38;;;;;;;;;;;10.90;99.90;;;;;;5052638;28;19924;-73
2021/05/18 02:33:08;;;;;;;;;;;11.00;99.90;;;;;;5053286;28;20400;-71
2021/05/18 02:35:39;;;;;;;;;;;10.90;99.90;;;;;;5054437;28;19932;-71
2021/05/18 02:38:07;;;;;;;;;;;10.90;99.90;;;;;;5055527;28;19929;-72
2021/05/18 02:40:40;;;;;;;;;;;10.90;99.90;;;;;;5053167;28;19924;-72
2021/05/18 02:43:11;;;;;;;;;;;11.00;99.90;;;;;;5053677;28;19979;-71
2021/05/18 02:45:44;;;;;;;;;;;11.00;99.90;;;;;;5052152;28;19933;-71
2021/05/18 02:51:04;;;;;;;;;;;11.00;99.90;;;;;;5055027;28;19970;-73
2021/05/18 02:53:47;;;;;;;;;;;11.00;99.90;;;;;;5053760;28;19948;-71
2021/05/18 02:56:23;;;;;;;;;;;10.90;99.90;;;;;;5052952;28;19925;-72
2021/05/18 02:58:59;;;;;;;;;;;10.90;99.90;;;;;;5054574;28;19935;-72
2021/05/18 03:01:27;;;;;;;;;;;10.90;99.90;;;;;;5052499;28;19925;-72
2021/05/18 03:03:55;;;;;;;;;;;10.90;99.90;;;;;;5053269;28;19924;-74
2021/05/18 03:06:24;;;;;;;;;;;10.90;99.90;;;;;;5052983;28;19925;-71
2021/05/18 03:08:52;;;;;;;;;;;10.90;99.90;;;;;;5053795;28;19940;-72
2021/05/18 03:11:21;;;;;;;;;;;10.90;99.90;;;;;;5067027;28;19925;-72
2021/05/18 03:13:49;;;;;;;;;;;10.90;99.90;;;;;;5053862;28;19979;-72
2021/05/18 03:16:16;;;;;;;;;;;10.90;99.90;;;;;;5052682;28;19931;-71
2021/05/18 03:18:45;;;;;;;;;;;10.90;99.90;;;;;;5052276;28;19925;-70
2021/05/18 03:21:13;;;;;;;;;;;10.90;99.90;;;;;;5054172;28;19925;-71
2021/05/18 03:23:41;;;;;;;;;;;10.90;99.90;;;;;;5052305;28;19956;-72
2021/05/18 03:26:09;;;;;;;;;;;10.90;99.90;;;;;;5053814;28;19925;-71
2021/05/18 03:28:37;;;;;;;;;;;10.90;99.90;;;;;;5069746;28;19996;-71
2021/05/18 03:34:25;;;;;;;;;;;10.90;99.90;;;;;;5051957;28;19955;-71
2021/05/18 03:36:45;;;;;;;;;;;10.90;99.90;;;;;;5053281;28;20384;-70
2021/05/18 03:39:12;;;;;;;;;;;10.90;99.90;;;;;;5070707;28;20273;-71
2021/05/18 03:41:52;;;;;;;;;;;10.90;99.90;;;;;;5055637;28;19931;-72
2021/05/18 03:44:26;;;;;;;;;;;10.90;99.90;;;;;;5055981;28;20347;-70
2021/05/18 03:52:27;;;;;;;;;;;10.80;99.90;;;;;;5056944;28;19979;-71
2021/05/18 03:55:04;;;;;;;;;;;10.90;99.90;;;;;;5056250;28;19932;-71
2021/05/18 04:03:12;;;;;;;;;;;10.90;99.90;;;;;;5052327;28;19925;-70
2021/05/18 04:17:02;;;;;;;;;;;11.00;99.90;;;;;;5014448;28;20308;-71
2021/05/18 04:19:35;;;;;;;;;;;11.00;99.90;;;;;;5048021;28;20034;-70
2021/05/18 04:25:43;;;;;;;;;;;11.00;99.90;;;;;;4998733;28;20024;-72
2021/05/18 04:39:30;;;;;;;;;;;11.00;99.90;;;;;;5055473;28;19924;-71
2021/05/18 04:50:44;;;;;;;;;;;11.60;99.90;;;;;;5056319;28;19929;-72
2021/05/18 04:53:20;;;;;;;;;;;11.50;99.90;;;;;;5058254;28;20039;-72
2021/05/18 05:06:09;;;;;;;;;;;11.50;99.90;;;;;;5038530;28;19924;-71
2021/05/18 05:07:10;;;;;;;;;;;11.40;99.90;;;;;;5056151;28;19939;-73
2021/05/18 05:09:39;;;;;;;;;;;11.40;99.90;;;;;;5056686;28;20011;-72
2021/05/18 05:14:59;;;;;;;;;;;11.30;99.90;;;;;;5044218;28;19928;-70
2021/05/18 05:17:28;;;;;;;;;;;11.30;99.90;;;;;;5065353;28;19924;-72
2021/05/18 05:19:55;;;;;;;;;;;11.40;99.90;;;;;;5059722;28;20380;-70
2021/05/18 05:22:24;;;;;;;;;;;11.30;99.90;;;;;;5055855;28;19925;-71
2021/05/18 05:24:51;;;;;;;;;;;11.40;99.90;;;;;;5055832;28;19960;-71
2021/05/18 05:27:19;;;;;;;;;;;11.30;99.90;;;;;;5054975;28;20078;-71
2021/05/18 05:30:00;;;;;;;;;;;11.10;99.90;;;;;;5055502;28;19943;-70
2021/05/18 05:32:28;;;;;;;;;;;11.10;99.90;;;;;;5055277;28;19925;-72
2021/05/18 05:34:56;;;;;;;;;;;11.20;99.90;;;;;;5055260;28;19924;-70
2021/05/18 05:37:25;;;;;;;;;;;11.20;99.90;;;;;;5055518;28;19956;-70
2021/05/18 05:39:54;;;;;;;;;;;11.30;99.90;;;;;;5055826;28;20415;-70
2021/05/18 05:42:23;;;;;;;;;;;11.30;99.90;;;;;;5056081;28;19967;-69
2021/05/18 05:44:51;;;;;;;;;;;11.40;99.90;;;;;;5055831;28;19970;-68
2021/05/18 05:47:19;;;;;;;;;;;11.40;99.90;;;;;;5054579;28;19928;-69
2021/05/18 05:49:47;;;;;;;;;;;11.40;99.90;;;;;;5054408;28;19931;-70
2021/05/18 05:52:18;;;;;;;;;;;11.30;99.90;;;;;;5055502;28;20349;-72
2021/05/18 05:54:48;;;;;;;;;;;11.30;99.90;;;;;;5037742;28;19931;-70
2021/05/18 05:57:17;;;;;;;;;;;11.30;99.90;;;;;;5055450;28;19929;-70
2021/05/18 05:59:46;;;;;;;;;;;11.30;99.90;;;;;;5055430;28;20020;-69
2021/05/18 06:02:14;;;;;;;;;;;11.20;99.90;;;;;;5069752;28;19999;-72
2021/05/18 06:04:42;;;;;;;;;;;11.20;99.90;;;;;;5055454;28;20339;-71
2021/05/18 06:07:10;;;;;;;;;;;11.10;99.90;;;;;;5071538;28;19971;-70
2021/05/18 06:09:39;;;;;;;;;;;11.10;99.90;;;;;;5054815;28;19924;-69
2021/05/18 06:12:20;;;;;;;;;;;11.30;99.90;;;;;;5068710;28;19947;-70
2021/05/18 06:14:58;;;;;;;;;;;11.30;99.90;;;;;;5069760;28;19924;-70
2021/05/18 06:37:05;;;;;;;;;;;11.80;99.90;;;;;;5032156;28;19925;-70
2021/05/18 06:42:43;;;;;;;;;;;11.80;99.90;;;;;;5053634;28;20015;-70
2021/05/18 06:47:58;;;;;;;;;;;11.80;99.90;;;;;;5053152;28;19996;-71
2021/05/18 06:50:29;;;;;;;;;;;11.80;99.90;;;;;;5035947;28;19978;-69
2021/05/18 06:52:57;;;;;;;;;;;11.70;99.90;;;;;;5054151;28;19925;-71
2021/05/18 06:55:27;;;;;;;;;;;11.80;99.90;;;;;;5052677;28;20211;-71
2021/05/18 06:58:04;;;;;;;;;;;11.90;99.90;;;;;;5054398;28;19925;-71
2021/05/18 07:00:35;;;;;;;;;;;12.00;99.90;;;;;;5052045;28;19932;-70
2021/05/18 07:03:05;;;;;;;;;;;12.00;99.90;;;;;;5053593;28;19929;-72
2021/05/18 07:05:37;;;;;;;;;;;12.10;99.90;;;;;;5053718;28;19975;-71
2021/05/18 07:11:12;;;;;;;;;;;12.20;99.90;;;;;;5054310;28;20011;-70
2021/05/18 07:13:39;;;;;;;;;;;12.40;99.90;;;;;;5052145;28;20415;-70
2021/05/18 07:16:08;;;;;;;;;;;12.60;99.90;;;;;;5069915;28;19929;-70
2021/05/18 07:18:36;;;;;;;;;;;12.80;99.90;;;;;;5054617;28;19925;-69
2021/05/18 07:21:04;;;;;;;;;;;12.80;99.90;;;;;;5070736;28;20023;-71
2021/05/18 07:23:33;;;;;;;;;;;12.90;99.90;;;;;;5071054;28;19925;-69
2021/05/18 07:26:02;;;;;;;;;;;13.30;99.90;;;;;;5055801;28;19975;-69
2021/05/18 07:28:32;;;;;;;;;;;13.50;99.90;;;;;;5070788;28;19952;-71
2021/05/18 07:31:00;;;;;;;;;;;13.50;99.90;;;;;;5053505;28;19953;-71
2021/05/18 07:33:31;;;;;;;;;;;13.50;99.90;;;;;;5056922;28;19932;-70
2021/05/18 07:36:03;;;;;;;;;;;13.50;99.90;;;;;;5037736;28;19943;-70
2021/05/18 07:38:31;;;;;;;;;;;13.40;99.90;;;;;;5055767;28;20340;-70
2021/05/18 07:40:59;;;;;;;;;;;13.60;99.90;;;;;;5058003;28;20312;-69
2021/05/18 07:43:27;;;;;;;;;;;13.60;99.90;;;;;;5058505;28;19978;-69
2021/05/18 07:45:56;;;;;;;;;;;13.30;99.90;;;;;;5058557;28;19932;-70
2021/05/18 07:48:29;;;;;;;;;;;13.30;99.90;;;;;;5057995;28;20335;-70
2021/05/18 07:51:09;;;;;;;;;;;13.40;99.90;;;;;;5059684;28;20284;-72
2021/05/18 07:59:20;;;;;;;;;;;19.30;95.30;;;;;;5042068;28;19924;-69
2021/05/18 08:07:48;;;;;;;;;;;17.90;93.00;;;;;;5075145;28;19924;-70
2021/05/18 08:10:20;;;;;;;;;;;15.60;97.50;;;;;;5057662;28;19924;-70
2021/05/18 08:12:49;;;;;;;;;;;14.50;99.90;;;;;;5053600;28;20288;-70
2021/05/18 08:18:12;;;;;;;;;;;13.40;99.90;;;;;;5055529;28;19933;-70
2021/05/18 08:20:57;;;;;;;;;;;13.30;99.90;;;;;;5074107;28;20285;-71
2021/05/18 08:49:31;;;;;;;;;;;15.60;97.90;;;;;;5058267;28;19924;-70
2021/05/18 10:26:59;;;;;;;;;;;16.80;92.80;;;;;;5019722;28;20293;-70
2021/05/18 10:34:50;;;;;;;;;;;15.20;95.90;;;;;;5056344;28;19959;-69
2021/05/18 10:37:27;;;;;;;;;;;14.90;96.70;;;;;;5054338;28;20296;-69
2021/05/18 10:40:14;;;;;;;;;;;14.40;98.10;;;;;;5055981;28;19979;-70
2021/05/18 10:42:57;;;;;;;;;;;13.90;99.90;;;;;;5056869;28;19931;-70
2021/05/18 10:45:25;;;;;;;;;;;13.40;99.90;;;;;;5054775;28;20381;-70
2021/05/18 10:47:57;;;;;;;;;;;13.20;99.90;;;;;;5055008;28;19928;-70
2021/05/18 10:50:40;;;;;;;;;;;13.10;99.90;;;;;;5072364;28;19924;-70
2021/05/18 10:53:20;;;;;;;;;;;13.00;99.90;;;;;;5056327;28;19925;-69
2021/05/18 10:56:04;;;;;;;;;;;13.00;99.90;;;;;;5056175;28;20438;-69
2021/05/18 10:58:32;;;;;;;;;;;13.80;99.90;;;;;;5056877;28;19931;-70
2021/05/18 11:01:02;;;;;;;;;;;15.20;99.90;;;;;;5055813;28;19929;-69
2021/05/18 11:03:31;;;;;;;;;;;16.30;98.10;;;;;;5074317;28;20042;-69
2021/05/18 11:06:04;;;;;;;;;;;16.30;97.20;;;;;;5058754;28;19991;-69
2021/05/18 11:08:33;;;;;;;;;;;17.10;95.60;;;;;;5074158;28;19924;-69
2021/05/18 11:11:04;;;;;;;;;;;17.80;92.60;;;;;;5058066;28;19928;-70
2021/05/18 11:13:35;;;;;;;;;;;19.60;87.40;;;;;;5070749;28;19967;-70
2021/05/18 11:16:14;;;;;;;;;;;20.60;80.70;;;;;;5058845;28;20008;-68
2021/05/18 11:18:47;;;;;;;;;;;18.90;83.60;;;;;;5074469;28;20253;-70
2021/05/18 11:21:43;;;;;;;;;;;17.60;88.00;;;;;;5060681;28;19925;-70
2021/05/18 11:24:11;;;;;;;;;;;16.80;91.60;;;;;;5060815;28;19940;-69
2021/05/18 11:26:48;;;;;;;;;;;16.20;92.00;;;;;;5059668;28;19928;-70
2021/05/18 11:29:37;;;;;;;;;;;16.00;92.40;;;;;;5076221;28;19924;-71
2021/05/18 11:32:08;;;;;;;;;;;16.00;92.80;;;;;;5042319;28;19925;-70
2021/05/18 11:34:50;;;;;;;;;;;15.50;93.70;;;;;;5044408;28;19925;-72
2021/05/18 11:37:25;;;;;;;;;;;15.80;93.60;;;;;;5075108;28;20031;-71
2021/05/18 11:40:12;;;;;;;;;;;15.80;94.20;;;;;;5056984;28;19925;-70
2021/05/18 11:43:12;;;;;;;;;;;15.50;94.90;;;;;;5058778;28;19991;-71
2021/05/18 11:45:41;;;;;;;;;;;15.00;95.70;;;;;;5057430;28;19987;-74
2021/05/18 11:48:13;;;;;;;;;;;14.70;96.50;;;;;;5059255;28;19995;-70
2021/05/18 11:50:44;;;;;;;;;;;14.60;97.10;;;;;;5059424;28;19925;-70
2021/05/18 11:53:28;;;;;;;;;;;14.60;97.60;;;;;;5057737;28;19929;-70
2021/05/18 11:55:56;;;;;;;;;;;14.60;98.10;;;;;;5058334;28;19931;-70
2021/05/18 11:58:25;;;;;;;;;;;14.50;98.50;;;;;;5074878;28;20038;-70
2021/05/18 12:01:04;;;;;;;;;;;14.60;98.50;;;;;;5058678;28;19925;-72
2021/05/18 12:03:35;;;;;;;;;;;14.60;98.60;;;;;;5071410;28;19924;-69
2021/05/18 12:06:04;;;;;;;;;;;15.10;98.10;;;;;;5055689;28;20299;-70
2021/05/18 12:08:35;;;;;;;;;;;15.00;98.20;;;;;;5055584;28;19947;-70
2021/05/18 12:11:12;;;;;;;;;;;15.20;98.10;;;;;;5055413;28;19931;-70
2021/05/18 12:13:41;;;;;;;;;;;15.00;97.30;;;;;;5053536;28;19928;-71
2021/05/18 12:16:10;;;;;;;;;;;15.50;96.40;;;;;;5069687;28;19988;-70
2021/05/18 12:18:41;;;;;;;;;;;15.60;95.70;;;;;;5053877;28;19925;-72
2021/05/18 12:21:13;;;;;;;;;;;15.60;95.00;;;;;;5053913;28;20346;-72
2021/05/18 12:24:06;;;;;;;;;;;16.30;93.40;;;;;;5055267;28;19932;-70
2021/05/18 12:26:44;;;;;;;;;;;16.30;92.00;;;;;;5070562;28;19925;-70
2021/05/18 12:29:12;;;;;;;;;;;16.10;90.20;;;;;;5058594;28;19935;-70
2021/05/18 12:31:41;;;;;;;;;;;16.40;90.20;;;;;;5058559;28;19928;-70
2021/05/18 12:34:26;;;;;;;;;;;16.50;90.10;;;;;;5058415;28;19924;-73
2021/05/18 12:36:55;;;;;;;;;;;16.80;88.50;;;;;;5059829;28;20414;-70
2021/05/18 12:39:23;;;;;;;;;;;16.50;89.80;;;;;;5059823;28;19925;-69
2021/05/18 12:41:54;;;;;;;;;;;16.80;90.00;;;;;;5060079;28;19987;-68
2021/05/18 12:44:23;;;;;;;;;;;16.40;88.30;;;;;;5059413;28;20388;-72
2021/05/18 12:47:16;;;;;;;;;;;16.40;89.30;;;;;;5042267;28;20381;-75
2021/05/18 12:49:50;;;;;;;;;;;16.40;89.30;;;;;;5059424;28;20364;-72
2021/05/18 12:52:18;;;;;;;;;;;16.60;90.00;;;;;;5059801;28;20373;-72
2021/05/18 12:54:49;;;;;;;;;;;16.60;90.20;;;;;;5060545;28;19925;-71
2021/05/18 12:57:18;;;;;;;;;;;16.30;90.70;;;;;;5042352;28;20372;-71
2021/05/18 13:00:00;;;;;;;;;;;16.20;91.40;;;;;;5059724;28;19935;-71
2021/05/18 13:02:30;;;;;;;;;;;16.30;91.30;;;;;;5075791;28;19931;-72
2021/05/18 13:05:23;;;;;;;;;;;16.10;91.70;;;;;;5058914;28;19943;-71
2021/05/18 13:08:06;;;;;;;;;;;16.40;91.90;;;;;;5060022;28;19929;-71
2021/05/18 13:10:48;;;;;;;;;;;16.20;91.80;;;;;;5059327;28;19925;-72
2021/05/18 13:13:17;;;;;;;;;;;15.50;92.80;;;;;;5057267;28;19925;-71
2021/05/18 13:15:47;;;;;;;;;;;16.00;92.70;;;;;;5056296;28;19924;-72
2021/05/18 13:18:16;;;;;;;;;;;16.30;92.30;;;;;;5057625;28;19925;-71
2021/05/18 13:20:51;;;;;;;;;;;15.90;92.10;;;;;;5058801;28;19924;-72
2021/05/18 13:23:27;;;;;;;;;;;16.00;92.40;;;;;;5058300;28;19924;-69
2021/05/18 13:28:42;;;;;;;;;;;15.80;93.30;;;;;;5058569;28;20339;-72
2021/05/18 13:31:09;;;;;;;;;;;15.90;93.70;;;;;;5058243;28;19924;-71
2021/05/18 13:33:37;;;;;;;;;;;16.30;94.10;;;;;;5058442;28;20294;-71
2021/05/18 13:36:06;;;;;;;;;;;16.50;94.70;;;;;;5074441;28;19929;-72
2021/05/18 13:38:36;;;;;;;;;;;16.60;92.90;;;;;;5058552;28;20342;-71
2021/05/18 13:41:05;;;;;;;;;;;16.40;92.10;;;;;;5057654;28;19925;-71
2021/05/18 13:43:33;;;;;;;;;;;16.70;92.00;;;;;;5058838;28;19925;-71
2021/05/18 13:46:01;;;;;;;;;;;16.60;92.00;;;;;;5058241;28;19929;-72
2021/05/18 13:48:29;;;;;;;;;;;16.50;91.90;;;;;;5057218;28;19925;-71
2021/05/18 13:50:57;;;;;;;;;;;16.40;92.00;;;;;;5057854;28;20362;-71
2021/05/18 13:53:46;;;;;;;;;;;16.50;91.40;;;;;;5057515;28;19951;-70
2021/05/18 13:56:20;;;;;;;;;;;16.70;90.80;;;;;;5059314;28;20276;-70
2021/05/18 13:58:48;;;;;;;;;;;16.50;90.70;;;;;;5058398;28;19924;-71
2021/05/18 14:01:16;;;;;;;;;;;16.50;90.40;;;;;;5056451;28;19924;-74
2021/05/18 14:03:44;;;;;;;;;;;16.90;90.00;;;;;;5058946;28;19924;-71
2021/05/18 14:06:13;;;;;;;;;;;16.90;90.00;;;;;;5057373;28;19929;-71
2021/05/18 14:08:41;;;;;;;;;;;16.90;89.70;;;;;;5059161;28;20012;-70
2021/05/18 14:11:11;;;;;;;;;;;17.10;88.30;;;;;;5059179;28;19931;-72
2021/05/18 14:13:39;;;;;;;;;;;17.10;86.60;;;;;;5056910;28;20019;-70
2021/05/18 14:16:09;;;;;;;;;;;16.90;88.00;;;;;;5057336;28;19925;-72
2021/05/18 14:18:38;;;;;;;;;;;17.10;89.00;;;;;;5058126;28;19925;-71
2021/05/18 14:21:06;;;;;;;;;;;17.30;88.60;;;;;;5058972;28;19937;-71
2021/05/18 14:23:39;;;;;;;;;;;17.10;90.00;;;;;;5058521;28;19925;-71
2021/05/18 14:26:35;;;;;;;;;;;16.70;91.30;;;;;;5057914;28;19963;-70
2021/05/18 14:29:03;;;;;;;;;;;16.40;91.70;;;;;;5057832;28;19963;-72
2021/05/18 14:31:31;;;;;;;;;;;16.10;91.80;;;;;;5057320;28;20009;-70
2021/05/18 14:33:59;;;;;;;;;;;15.90;91.60;;;;;;5058464;28;19970;-71
2021/05/18 14:36:27;;;;;;;;;;;16.20;89.40;;;;;;5059382;28;19947;-70
2021/05/18 14:39:06;;;;;;;;;;;16.60;86.50;;;;;;5059562;28;19924;-71
2021/05/18 14:44:22;;;;;;;;;;;17.20;82.50;;;;;;5073153;28;19931;-71
2021/05/18 14:46:56;;;;;;;;;;;17.40;80.60;;;;;;5055857;28;20032;-70
2021/05/18 14:55:07;;;;;;;;;;;17.60;76.10;;;;;;5039630;28;19964;-71
2021/05/18 14:57:36;;;;;;;;;;;17.50;76.50;;;;;;5039904;28;19932;-70
2021/05/18 15:00:04;;;;;;;;;;;17.30;76.70;;;;;;5056959;28;19929;-71
2021/05/18 15:02:33;;;;;;;;;;;17.30;77.80;;;;;;5058002;28;19968;-71
2021/05/18 15:05:26;;;;;;;;;;;17.20;78.50;;;;;;5072220;28;19925;-71
2021/05/18 15:07:54;;;;;;;;;;;17.10;78.90;;;;;;5057612;28;19936;-70
2021/05/18 15:10:24;;;;;;;;;;;16.80;77.50;;;;;;5038421;28;20059;-72
2021/05/18 15:13:19;;;;;;;;;;;17.00;75.30;;;;;;5057588;28;20019;-72
2021/05/18 15:15:48;;;;;;;;;;;17.00;75.30;;;;;;5056671;28;19960;-70
2021/05/18 15:18:17;;;;;;;;;;;16.90;76.60;;;;;;5072926;28;20388;-71
2021/05/18 15:20:45;;;;;;;;;;;16.80;74.30;;;;;;5055862;28;20356;-71
2021/05/18 15:23:13;;;;;;;;;;;16.60;74.70;;;;;;5056285;28;19925;-72
2021/05/18 15:25:41;;;;;;;;;;;16.50;75.60;;;;;;5057369;28;19925;-72
2021/05/18 15:28:09;;;;;;;;;;;16.50;77.30;;;;;;5057223;28;20015;-71
2021/05/18 15:30:37;;;;;;;;;;;16.50;78.70;;;;;;5035321;28;19932;-74
2021/05/18 15:33:08;;;;;;;;;;;16.30;80.50;;;;;;5037927;28;19925;-72
2021/05/18 15:35:36;;;;;;;;;;;16.30;82.60;;;;;;5037121;28;19932;-71
2021/05/18 15:38:04;;;;;;;;;;;15.90;86.70;;;;;;5037478;28;19925;-71
2021/05/18 15:40:32;;;;;;;;;;;15.90;89.20;;;;;;5037747;28;19929;-71
2021/05/18 15:43:00;;;;;;;;;;;15.90;90.20;;;;;;5037398;28;19944;-72
2021/05/18 15:45:28;;;;;;;;;;;15.70;90.70;;;;;;5039705;28;20299;-71
2021/05/18 15:47:59;;;;;;;;;;;15.50;91.10;;;;;;5056258;28;19979;-70
2021/05/18 15:50:28;;;;;;;;;;;15.50;91.50;;;;;;5055497;28;19924;-71
2021/05/18 15:52:55;;;;;;;;;;;15.30;92.90;;;;;;5057585;28;19924;-71
2021/05/18 15:55:24;;;;;;;;;;;15.10;93.10;;;;;;5057067;28;19929;-71
2021/05/18 15:57:53;;;;;;;;;;;15.20;92.90;;;;;;5055445;28;20396;-76
2021/05/18 16:00:21;;;;;;;;;;;15.60;93.50;;;;;;5055593;28;20284;-71
2021/05/18 16:02:49;;;;;;;;;;;16.00;93.20;;;;;;5060523;28;19925;-71
2021/05/18 16:05:17;;;;;;;;;;;16.50;92.60;;;;;;5042991;28;19925;-71
2021/05/18 16:07:53;;;;;;;;;;;16.80;92.00;;;;;;5061515;28;19969;-72
2021/05/18 16:10:22;;;;;;;;;;;17.00;91.50;;;;;;5060449;28;19967;-70
2021/05/18 16:13:15;;;;;;;;;;;16.70;91.30;;;;;;5060165;28;19924;-71
2021/05/18 16:15:47;;;;;;;;;;;16.20;90.90;;;;;;5061429;28;19970;-70
2021/05/18 16:18:15;;;;;;;;;;;16.30;88.40;;;;;;5060443;28;19992;-72
2021/05/18 16:20:43;;;;;;;;;;;16.30;86.30;;;;;;5060533;28;20392;-71
2021/05/18 16:23:16;;;;;;;;;;;16.10;84.50;;;;;;5059135;28;19924;-73
2021/05/18 16:25:44;;;;;;;;;;;15.80;86.90;;;;;;5060447;28;19932;-71
2021/05/18 16:28:12;;;;;;;;;;;15.70;86.30;;;;;;5058820;28;20000;-73
2021/05/18 16:30:40;;;;;;;;;;;15.40;92.10;;;;;;5058121;28;19929;-71
2021/05/18 16:33:08;;;;;;;;;;;14.90;93.80;;;;;;5059079;28;19925;-71
2021/05/18 16:35:36;;;;;;;;;;;14.80;95.10;;;;;;5059412;28;20027;-71
2021/05/18 16:38:04;;;;;;;;;;;14.20;96.40;;;;;;5059675;28;19924;-71
2021/05/18 16:40:32;;;;;;;;;;;14.20;97.20;;;;;;5059288;28;19924;-75
2021/05/18 16:43:00;;;;;;;;;;;14.00;97.40;;;;;;5059555;28;19929;-71
2021/05/18 16:45:28;;;;;;;;;;;14.00;97.80;;;;;;5057962;28;20356;-71
2021/05/18 16:47:56;;;;;;;;;;;14.00;98.10;;;;;;5059271;28;19931;-71
2021/05/18 16:50:24;;;;;;;;;;;14.10;97.90;;;;;;5058562;28;19924;-71
2021/05/18 16:52:51;;;;;;;;;;;13.90;98.20;;;;;;5058887;28;20276;-71
2021/05/18 16:55:20;;;;;;;;;;;13.60;98.80;;;;;;5057504;28;19978;-73
2021/05/18 16:57:49;;;;;;;;;;;13.50;99.30;;;;;;5058538;28;19931;-72
2021/05/18 17:00:16;;;;;;;;;;;13.70;99.60;;;;;;5053597;28;19932;-72
2021/05/18 17:02:44;;;;;;;;;;;14.10;99.50;;;;;;5037610;28;19932;-71
2021/05/18 17:05:12;;;;;;;;;;;14.20;98.90;;;;;;5037501;28;19929;-71
2021/05/18 17:07:40;;;;;;;;;;;14.30;98.80;;;;;;5039734;28;19925;-72
2021/05/18 17:10:09;;;;;;;;;;;14.40;98.20;;;;;;5037669;28;20250;-71
2021/05/18 17:12:36;;;;;;;;;;;14.30;98.10;;;;;;5037149;28;19947;-71
2021/05/18 17:15:06;;;;;;;;;;;14.20;98.20;;;;;;5036866;28;19931;-72
2021/05/18 17:17:35;;;;;;;;;;;14.00;98.40;;;;;;5057930;28;20356;-74
2021/05/18 17:20:03;;;;;;;;;;;13.90;97.90;;;;;;5057577;28;19929;-72
2021/05/18 17:22:31;;;;;;;;;;;13.80;98.00;;;;;;5058122;28;19932;-71
2021/05/18 17:25:00;;;;;;;;;;;13.70;98.20;;;;;;5058898;28;20016;-71
2021/05/18 17:27:28;;;;;;;;;;;13.60;98.20;;;;;;5057195;28;19951;-72
2021/05/18 17:29:56;;;;;;;;;;;13.60;98.50;;;;;;5057062;28;19955;-72
2021/05/18 17:32:25;;;;;;;;;;;13.60;98.30;;;;;;5052015;28;19929;-72
2021/05/18 17:34:53;;;;;;;;;;;13.50;98.40;;;;;;5053101;28;19929;-75
2021/05/18 17:37:21;;;;;;;;;;;13.50;98.80;;;;;;5019983;28;19931;-72
2021/05/18 17:39:59;;;;;;;;;;;13.50;98.70;;;;;;5037987;28;19925;-75
2021/05/18 17:42:26;;;;;;;;;;;13.60;99.10;;;;;;5037377;28;19929;-76
2021/05/18 17:44:57;;;;;;;;;;;13.50;99.90;;;;;;5053337;28;19929;-72
2021/05/18 17:47:26;;;;;;;;;;;13.50;99.90;;;;;;5057076;28;19947;-72
2021/05/18 17:49:54;;;;;;;;;;;13.40;99.90;;;;;;5057481;28;20043;-72
2021/05/18 17:52:22;;;;;;;;;;;13.30;99.90;;;;;;5056211;28;20019;-72
2021/05/18 17:54:51;;;;;;;;;;;13.30;99.90;;;;;;5056415;28;19925;-72
2021/05/18 17:57:18;;;;;;;;;;;13.20;99.90;;;;;;5057738;28;20003;-75
2021/05/18 17:59:47;;;;;;;;;;;13.10;99.90;;;;;;5056699;28;20391;-72
2021/05/18 18:02:15;;;;;;;;;;;12.90;99.90;;;;;;5055735;28;20399;-75
2021/05/18 18:04:43;;;;;;;;;;;12.80;99.90;;;;;;5056601;28;19924;-73
2021/05/18 18:07:36;;;;;;;;;;;12.80;99.90;;;;;;5055912;28;19925;-71
2021/05/18 18:12:57;;;;;;;;;;;12.40;99.90;;;;;;5055914;28;19925;-72
2021/05/18 18:15:25;;;;;;;;;;;12.30;99.90;;;;;;5054294;28;19925;-71
2021/05/18 18:17:53;;;;;;;;;;;12.30;99.90;;;;;;5055978;28;19940;-72
2021/05/18 18:20:21;;;;;;;;;;;12.20;99.90;;;;;;5070581;28;19975;-73
2021/05/18 18:22:49;;;;;;;;;;;12.10;99.90;;;;;;5055987;28;19982;-72
2021/05/18 18:25:17;;;;;;;;;;;12.00;99.90;;;;;;5056563;28;19925;-72
2021/05/18 18:27:45;;;;;;;;;;;11.70;99.90;;;;;;5056764;28;19932;-72
2021/05/18 18:30:13;;;;;;;;;;;11.70;99.90;;;;;;5072209;28;19924;-72
2021/05/18 18:32:41;;;;;;;;;;;11.70;99.90;;;;;;5056824;28;20052;-72
2021/05/18 18:35:09;;;;;;;;;;;11.60;99.90;;;;;;5056781;28;19940;-71
2021/05/18 18:37:39;;;;;;;;;;;11.70;99.90;;;;;;5072043;28;19925;-72
2021/05/18 18:40:08;;;;;;;;;;;11.60;99.90;;;;;;5054930;28;19955;-72
2021/05/18 18:42:36;;;;;;;;;;;11.60;99.90;;;;;;5056309;28;19948;-73
2021/05/18 18:45:04;;;;;;;;;;;11.40;99.90;;;;;;5057349;28;20117;-71
2021/05/18 18:47:32;;;;;;;;;;;11.40;99.90;;;;;;5055036;28;20381;-71
2021/05/18 18:50:28;;;;;;;;;;;11.30;99.90;;;;;;5070389;28;20448;-71
2021/05/18 18:53:01;;;;;;;;;;;11.20;99.90;;;;;;5054613;28;19925;-72
2021/05/18 18:55:29;;;;;;;;;;;11.10;99.90;;;;;;5054310;28;19956;-73
2021/05/18 18:57:57;;;;;;;;;;;11.10;99.90;;;;;;5054406;28;19951;-71
2021/05/18 19:00:27;;;;;;;;;;;11.20;99.90;;;;;;5054645;28;19971;-74